Time;durP1;ratioP1;P1;durP2;ratioP2;P2;SDS_P1;SDS_P2;PMS_P1;PMS_P2;Temp;Humidity;BMP_temperature;BMP_pressure;BME280_temperature;BME280_humidity;BME280_pressure;Samples;Min_cycle;Max_cycle;Signal;HPM_P1;HPM_P2
2022/01/04 00:00:18;;;;;;;5.20;2.30;;;;;;;6.76;78.92;97820.61;220515;1276;22585;-74
2022/01/04 00:05:40;;;;;;;4.70;2.30;;;;;;;6.65;79.71;97815.80;220383;1276;22555;-75
2022/01/04 00:11:42;;;;;;;3.90;1.70;;;;;;;6.51;80.44;97816.62;220237;1276;22597;-75
2022/01/04 00:17:35;;;;;;;5.70;1.90;;;;;;;6.38;80.91;97801.55;220114;1276;22616;-75
2022/01/04 00:23:50;;;;;;;;;;;;;;;;;;;;;
2022/01/04 00:29:47;;;;;;;;;;;;;;;;;;;;;
2022/01/04 00:35:36;;;;;;;5.10;2.10;;;;;;;6.15;82.01;97790.70;220102;1276;25387;-75
2022/01/04 00:41:05;;;;;;;4.50;2.20;;;;;;;6.09;82.28;97789.90;220180;1276;22663;-75
2022/01/04 00:46:16;;;;;;;4.50;2.30;;;;;;;6.06;82.88;97788.13;220339;1276;25375;-74
2022/01/04 00:58:04;;;;;;;7.00;2.40;;;;;;;5.96;83.67;97790.83;220225;1276;25477;-75
2022/01/04 01:03:50;;;;;;;;;;;;;;;;;;;;;
2022/01/04 01:16:30;;;;;;;3.30;2.00;;;;;;;5.74;85.56;97771.00;220007;1276;22618;-74
2022/01/04 01:21:57;;;;;;;4.20;2.00;;;;;;;5.72;85.67;97759.80;220354;1276;26229;-75
2022/01/04 01:27:06;;;;;;;3.20;1.60;;;;;;;5.70;85.96;97752.64;220334;1276;22714;-75
2022/01/04 01:32:45;;;;;;;3.70;1.90;;;;;;;5.70;86.43;97749.83;220323;1277;25374;-74
2022/01/04 01:38:53;;;;;;;3.90;1.90;;;;;;;5.70;86.31;97743.30;220146;1276;24268;-75
2022/01/04 01:44:23;;;;;;;2.80;1.70;;;;;;;5.70;86.53;97733.04;220158;1276;22537;-74
2022/01/04 01:50:13;;;;;;;4.10;1.90;;;;;;;5.69;86.45;97731.98;220180;1276;24935;-73
2022/01/04 01:56:04;;;;;;;;;;;;;;;;;;;;;
2022/01/04 02:01:26;;;;;;;4.70;2.40;;;;;;;5.67;86.63;97708.04;220323;1277;24925;-74
2022/01/04 02:12:59;;;;;;;;;;;;;;;;;;;;;
2022/01/04 02:18:18;;;;;;;6.40;2.60;;;;;;;5.68;86.91;97677.30;220169;1276;22592;-75
2022/01/04 02:24:22;;;;;;;4.70;2.60;;;;;;;5.66;86.95;97671.63;220236;1277;25486;-76
2022/01/04 02:30:11;;;;;;;5.60;3.00;;;;;;;5.66;87.11;97667.54;220265;1276;22710;-75
2022/01/04 02:36:25;;;;;;;5.40;2.90;;;;;;;5.66;86.96;97660.85;220046;1277;22551;-75
2022/01/04 02:42:46;;;;;;;;;;;;;;;;;;;;;
2022/01/04 02:49:21;;;;;;;6.30;3.90;;;;;;;5.67;87.53;97633.27;219682;1276;26433;-75
2022/01/04 02:55:04;;;;;;;7.70;4.00;;;;;;;5.69;87.38;97627.83;220257;1277;26753;-74
2022/01/04 03:06:16;;;;;;;5.60;3.60;;;;;;;5.67;87.75;97605.36;220187;1277;22708;-75
2022/01/04 03:12:13;;;;;;;;;;;;;;;;;;;;;
2022/01/04 03:19:11;;;;;;;;;;;;;;;;;;;;;
2022/01/04 03:32:28;;;;;;;6.30;3.10;;;;;;;5.66;88.27;97564.39;220289;1277;22544;-75
2022/01/04 03:38:48;;;;;;;;;;;;;;;;;;;;;
2022/01/04 03:44:36;;;;;;;;;;;;;;;;;;;;;
2022/01/04 03:50:52;;;;;;;;;;;;;;;;;;;;;
2022/01/04 03:56:40;;;;;;;6.70;4.50;;;;;;;5.80;88.49;97523.94;220129;1276;24278;-74
2022/01/04 04:02:48;;;;;;;7.70;4.50;;;;;;;5.89;88.77;97523.31;220144;1277;22754;-75
2022/01/04 04:09:44;;;;;;;;;;;;;;;;;;;;;
2022/01/04 04:16:55;;;;;;;6.10;3.40;;;;;;;5.89;89.00;97522.23;220181;1277;22575;-74
2022/01/04 04:30:40;;;;;;;;;;;;;;;;;;;;;
2022/01/04 04:37:41;;;;;;;7.50;4.60;;;;;;;6.03;88.80;97484.82;220185;1277;22639;-75
2022/01/04 04:44:30;;;;;;;12.80;7.00;;;;;;;6.04;88.79;97485.29;220218;1277;25470;-75
2022/01/04 04:50:33;;;;;;;;;;;;;;;;;;;;;
2022/01/04 05:10:33;;;;;;;;;;;;;;;;;;;;;
2022/01/04 05:16:58;;;;;;;;;;;;;;;;;;;;;
2022/01/04 05:23:57;;;;;;;;;;;;;;;;;;;;;
2022/01/04 05:30:28;;;;;;;5.20;2.30;;;;;;;6.26;89.10;97444.30;220103;1277;24415;-76
2022/01/04 05:36:48;;;;;;;;;;;;;;;;;;;;;
2022/01/04 05:43:22;;;;;;;;;;;;;;;;;;;;;
2022/01/04 05:49:41;;;;;;;6.30;3.00;;;;;;;6.33;88.78;97411.51;220339;1276;22623;-75
2022/01/04 05:55:15;;;;;;;5.20;2.70;;;;;;;6.33;88.74;97410.33;220456;1277;22590;-74
2022/01/04 06:01:43;;;;;;;4.50;2.00;;;;;;;6.32;88.66;97402.77;220507;1277;22560;-74
2022/01/04 06:07:11;;;;;;;5.40;2.30;;;;;;;6.29;88.57;97398.02;220417;1277;24172;-75
2022/01/04 06:37:49;;;;;;;2.80;1.80;;;;;;;6.26;89.36;97361.64;220380;1277;22550;-74
2022/01/04 06:43:29;;;;;;;3.80;2.00;;;;;;;6.29;89.37;97358.60;220595;1276;22547;-75
2022/01/04 06:49:20;;;;;;;6.40;2.10;;;;;;;6.33;90.50;97355.14;220760;1276;22624;-75
2022/01/04 06:55:50;;;;;;;5.10;1.60;;;;;;;6.37;90.84;97348.05;220926;1276;23162;-74
2022/01/04 07:09:04;;;;;;;;;;;;;;;;;;;;;
2022/01/04 07:15:32;;;;;;;6.10;2.90;;;;;;;6.41;90.09;97315.92;220854;1277;25395;-72
2022/01/04 07:21:40;;;;;;;;;;;;;;;;;;;;;
2022/01/04 07:35:44;;;;;;;8.00;5.50;;;;;;;6.52;89.81;97305.59;220943;1276;25385;-76
2022/01/04 07:42:08;;;;;;;;;;;;;;;;;;;;;
2022/01/04 07:48:13;;;;;;;6.00;4.10;;;;;;;6.64;89.34;97293.48;220597;1278;22723;-75
2022/01/04 07:55:06;;;;;;;8.30;4.30;;;;;;;6.67;89.44;97280.13;220372;1279;22626;-74
2022/01/04 08:02:10;;;;;;;7.30;4.60;;;;;;;6.71;89.62;97262.95;220446;1276;25924;-74
2022/01/04 08:08:42;;;;;;;9.80;4.80;;;;;;;6.72;89.41;97237.37;220547;1276;25863;-74
2022/01/04 08:15:31;;;;;;;;;;;;;;;;;;;;;
2022/01/04 08:41:55;;;;;;;8.00;4.60;;;;;;;6.93;89.18;97166.48;220342;1276;25262;-74
2022/01/04 09:02:11;;;;;;;9.60;6.20;;;;;;;7.10;88.74;97128.95;220375;1279;22587;-76
2022/01/04 09:07:57;;;;;;;15.70;7.80;;;;;;;7.17;88.86;97118.25;220634;1278;22779;-76
2022/01/04 09:19:40;;;;;;;16.60;8.30;;;;;;;7.28;88.48;97093.16;220468;1277;22986;-73
2022/01/04 09:24:42;;;;;;;15.80;7.90;;;;;;;7.34;88.59;97078.08;220333;1277;24232;-75
2022/01/04 09:29:56;;;;;;;;;;;;;;;;;;;;;
2022/01/04 09:35:05;;;;;;;13.70;7.10;;;;;;;7.52;88.37;97050.58;220122;1279;25537;-75
2022/01/04 09:40:51;;;;;;;10.30;5.20;;;;;;;7.62;88.34;97036.12;220527;1278;22540;-74
2022/01/04 09:52:33;;;;;;;10.60;4.50;;;;;;;7.79;87.85;97011.45;220275;1278;22562;-75
2022/01/04 10:04:33;;;;;;;10.00;5.60;;;;;;;7.96;87.27;97004.34;220403;1277;22634;-75
2022/01/04 10:10:24;;;;;;;8.90;5.10;;;;;;;8.01;87.19;96999.23;220435;1277;24795;-75
2022/01/04 10:16:28;;;;;;;9.60;5.50;;;;;;;8.08;86.90;96986.64;220231;1277;22722;-75
2022/01/04 10:22:27;;;;;;;4.60;3.00;;;;;;;8.12;86.72;96976.59;220765;1278;22665;-76
2022/01/04 10:28:44;;;;;;;;;;;;;;;;;;;;;
2022/01/04 10:35:06;;;;;;;5.80;2.70;;;;;;;8.29;86.50;96957.59;220020;1279;26712;-76
2022/01/04 10:47:24;;;;;;;3.30;2.10;;;;;;;8.37;86.25;96936.05;220455;1280;22773;-73
2022/01/04 10:52:51;;;;;;;3.90;1.90;;;;;;;8.41;86.43;96931.55;219944;1279;25598;-75
2022/01/04 10:58:24;;;;;;;;;;;;;;;;;;;;;
2022/01/04 11:03:37;;;;;;;5.00;2.70;;;;;;;8.49;86.32;96925.52;219586;1279;22618;-74
2022/01/04 11:09:10;;;;;;;3.20;2.10;;;;;;;8.50;86.33;96922.34;220030;1277;22634;-74
2022/01/04 11:15:02;;;;;;;2.40;1.70;;;;;;;8.46;86.77;96912.65;220074;1277;24250;-74
2022/01/04 11:21:39;;;;;;;3.20;1.60;;;;;;;8.37;87.22;96904.80;220196;1277;22560;-74
2022/01/04 11:28:07;;;;;;;;;;;;;;;;;;;;;
2022/01/04 11:34:35;;;;;;;;;;;;;;;;;;;;;
2022/01/04 11:41:26;;;;;;;3.30;2.00;;;;;;;8.32;87.93;96863.29;220216;1277;22727;-75
2022/01/04 11:48:05;;;;;;;;;;;;;;;;;;;;;
2022/01/04 11:54:14;;;;;;;3.00;2.00;;;;;;;8.35;88.42;96834.88;219907;1279;22641;-74
2022/01/04 11:59:59;;;;;;;2.90;2.20;;;;;;;8.36;88.40;96818.61;220265;1278;23806;-75
2022/01/04 12:05:29;;;;;;;3.30;2.00;;;;;;;8.36;88.54;96800.30;220403;1278;24292;-75
2022/01/04 12:11:17;;;;;;;;;;;;;;;;;;;;;
2022/01/04 12:16:36;;;;;;;3.50;1.90;;;;;;;8.38;88.65;96774.16;220309;1279;22606;-76
2022/01/04 12:22:05;;;;;;;;;;;;;;;;;;;;;
2022/01/04 12:27:16;;;;;;;3.20;2.10;;;;;;;8.39;88.56;96753.19;220281;1278;22607;-74
2022/01/04 12:32:58;;;;;;;;;;;;;;;;;;;;;
2022/01/04 12:39:27;;;;;;;3.60;1.90;;;;;;;8.49;88.38;96717.11;220146;1277;25271;-74
2022/01/04 12:45:40;;;;;;;;;;;;;;;;;;;;;
2022/01/04 12:51:40;;;;;;;3.70;2.00;;;;;;;8.69;86.97;96693.77;220500;1277;22620;-75
2022/01/04 12:57:05;;;;;;;5.30;1.60;;;;;;;8.77;86.72;96689.69;220468;1277;22556;-75
2022/01/04 13:02:50;;;;;;;;;;;;;;;;;;;;;
2022/01/04 13:07:55;;;;;;;5.80;1.90;;;;;;;8.84;86.09;96680.57;220513;1277;23415;-75
2022/01/04 13:13:05;;;;;;;4.30;2.10;;;;;;;8.85;86.13;96668.23;220337;1277;22559;-75
2022/01/04 13:18:10;;;;;;;3.70;2.10;;;;;;;8.83;86.08;96660.16;220485;1278;23858;-75
2022/01/04 13:30:29;;;;;;;2.90;1.60;;;;;;;8.85;86.10;96644.73;219915;1279;22555;-75
2022/01/04 13:37:18;;;;;;;;;;;;;;;;;;;;;
2022/01/04 13:43:30;;;;;;;2.30;1.80;;;;;;;8.89;86.30;96625.27;220329;1278;22688;-75
2022/01/04 13:49:46;;;;;;;;;;;;;;;;;;;;;
2022/01/04 13:56:00;;;;;;;4.30;2.70;;;;;;;8.89;84.88;96601.86;220085;1278;22584;-75
2022/01/04 14:08:30;;;;;;;;;;;;;;;;;;;;;
2022/01/04 14:21:45;;;;;;;2.50;1.40;;;;;;;8.85;83.27;96573.50;220353;1279;22673;-71
2022/01/04 14:34:12;;;;;;;2.60;1.80;;;;;;;8.85;82.19;96557.63;220459;1279;22651;-73
2022/01/04 14:40:04;;;;;;;;;;;;;;;;;;;;;
2022/01/04 14:45:11;;;;;;;3.60;2.40;;;;;;;8.86;81.32;96541.96;220775;1278;25284;-73
2022/01/04 14:50:14;;;;;;;7.60;3.00;;;;;;;8.90;80.62;96535.60;220392;1279;22568;-74
2022/01/04 14:56:19;;;;;;;2.90;2.00;;;;;;;8.93;80.58;96522.02;220976;1278;22577;-73
2022/01/04 15:02:02;;;;;;;4.80;2.60;;;;;;;8.97;79.18;96507.13;220408;1279;23293;-73
2022/01/04 15:08:01;;;;;;;;;;;;;;;;;;;;;
2022/01/04 15:13:57;;;;;;;4.10;2.40;;;;;;;8.99;78.78;96499.48;220109;1279;22737;-74
2022/01/04 15:19:32;;;;;;;5.60;3.00;;;;;;;8.97;78.40;96497.73;220171;1277;25427;-74
2022/01/04 15:24:48;;;;;;;4.50;2.80;;;;;;;8.91;77.77;96491.59;219997;1279;22854;-74
2022/01/04 15:29:59;;;;;;;5.20;2.40;;;;;;;8.88;77.84;96489.05;219935;1278;22768;-74
2022/01/04 15:35:05;;;;;;;4.50;3.10;;;;;;;8.85;77.66;96492.70;220041;1278;25386;-73
2022/01/04 15:40:14;;;;;;;4.00;2.50;;;;;;;8.82;77.75;96488.03;220150;1278;25384;-73
2022/01/04 15:45:37;;;;;;;4.70;2.30;;;;;;;8.82;77.95;96488.18;220141;1278;25705;-74
2022/01/04 15:51:14;;;;;;;5.50;3.20;;;;;;;8.84;77.96;96493.36;220095;1278;22573;-73
2022/01/04 15:56:36;;;;;;;5.50;3.60;;;;;;;8.88;78.09;96486.54;220081;1278;22551;-74
2022/01/04 16:01:52;;;;;;;4.50;3.00;;;;;;;8.91;78.08;96487.41;219728;1279;24311;-74
2022/01/04 16:07:18;;;;;;;4.60;2.80;;;;;;;8.93;78.33;96474.73;219908;1278;24739;-74
2022/01/04 16:22:53;;;;;;;5.70;3.20;;;;;;;8.98;78.41;96471.23;220168;1277;24809;-74
2022/01/04 16:28:25;;;;;;;;;;;;;;;;;;;;;
2022/01/04 16:33:29;;;;;;;5.00;3.40;;;;;;;9.01;79.23;96464.14;220097;1278;22571;-74
2022/01/04 16:38:52;;;;;;;5.50;3.60;;;;;;;9.07;79.35;96465.02;219998;1278;22576;-74
2022/01/04 16:44:20;;;;;;;5.60;4.00;;;;;;;9.09;79.49;96464.78;220034;1278;22582;-73
2022/01/04 16:50:11;;;;;;;6.50;3.60;;;;;;;9.09;79.85;96460.05;219990;1279;22570;-74
2022/01/04 16:55:37;;;;;;;6.20;3.90;;;;;;;9.04;80.26;96452.89;219966;1278;25398;-74
2022/01/04 17:01:19;;;;;;;6.20;4.10;;;;;;;9.00;80.60;96447.48;219989;1279;22660;-73
2022/01/04 17:06:21;;;;;;;6.50;4.50;;;;;;;8.97;80.87;96447.46;219961;1278;22570;-74
2022/01/04 17:11:26;;;;;;;6.90;4.50;;;;;;;8.97;81.21;96441.58;220005;1278;22563;-73
2022/01/04 17:16:39;;;;;;;6.90;4.60;;;;;;;8.98;81.55;96441.17;220229;1279;22599;-73
2022/01/04 17:21:45;;;;;;;10.10;4.30;;;;;;;8.96;81.93;96429.96;220179;1279;24344;-74
2022/01/04 17:27:38;;;;;;;5.10;4.10;;;;;;;8.93;82.40;96429.88;220088;1279;22544;-73
2022/01/04 17:33:00;;;;;;;9.10;4.70;;;;;;;8.92;82.56;96417.48;220015;1278;22578;-73
2022/01/04 17:38:32;;;;;;;7.10;4.80;;;;;;;8.94;82.97;96410.23;220030;1279;24235;-73
2022/01/04 17:44:10;;;;;;;7.40;4.80;;;;;;;9.02;83.29;96409.99;220012;1279;25229;-73
2022/01/04 17:49:48;;;;;;;5.40;4.10;;;;;;;9.06;83.48;96413.10;219855;1278;24123;-73
2022/01/04 17:55:40;;;;;;;5.70;4.00;;;;;;;9.09;83.68;96400.21;219981;1279;22621;-74
2022/01/04 18:01:50;;;;;;;5.40;3.50;;;;;;;9.08;83.82;96404.25;219975;1279;26481;-74
2022/01/04 18:07:25;;;;;;;;;;;;;;;;;;;;;
2022/01/04 18:13:00;;;;;;;4.10;3.40;;;;;;;9.15;84.12;96394.13;220032;1278;22590;-74
2022/01/04 18:18:13;;;;;;;6.70;4.00;;;;;;;9.17;84.17;96391.27;220010;1278;26564;-74
2022/01/04 18:23:16;;;;;;;5.30;4.10;;;;;;;9.19;84.25;96383.48;219911;1278;25387;-74
2022/01/04 18:28:21;;;;;;;8.10;4.30;;;;;;;9.23;84.21;96384.08;219895;1278;25277;-73
2022/01/04 18:33:45;;;;;;;6.10;4.10;;;;;;;9.24;84.03;96397.16;219963;1279;22577;-73
2022/01/04 18:39:29;;;;;;;7.20;4.70;;;;;;;9.25;84.13;96405.79;220136;1278;22655;-73
2022/01/04 18:45:04;;;;;;;;;;;;;;;;;;;;;
2022/01/04 18:50:48;;;;;;;8.00;4.90;;;;;;;9.36;83.94;96392.21;220043;1278;22760;-73
2022/01/04 19:02:16;;;;;;;7.30;4.20;;;;;;;9.45;83.60;96397.58;219572;1278;25282;-73
2022/01/04 19:07:42;;;;;;;;;;;;;;;;;;;;;
2022/01/04 19:13:04;;;;;;;6.40;4.20;;;;;;;9.51;83.36;96395.45;220046;1278;22772;-74
2022/01/04 19:18:18;;;;;;;7.40;4.40;;;;;;;9.52;83.17;96393.80;219779;1278;22583;-74
2022/01/04 19:23:33;;;;;;;7.30;4.30;;;;;;;9.53;83.08;96386.42;220049;1278;22806;-74
2022/01/04 19:28:55;;;;;;;7.40;4.40;;;;;;;9.53;82.95;96390.40;220175;1278;25392;-74
2022/01/04 19:40:03;;;;;;;8.60;4.40;;;;;;;9.64;82.30;96397.94;219987;1278;25541;-74
2022/01/04 19:45:53;;;;;;;7.20;3.70;;;;;;;9.68;82.39;96392.42;220009;1277;22604;-73
2022/01/04 19:51:19;;;;;;;6.20;3.70;;;;;;;9.66;82.30;96372.73;220015;1277;22707;-73
2022/01/04 19:56:41;;;;;;;6.30;3.90;;;;;;;9.64;82.35;96381.67;220068;1277;24163;-74
2022/01/04 20:02:04;;;;;;;7.40;3.70;;;;;;;9.66;82.36;96384.42;220081;1278;22556;-74
2022/01/04 20:08:06;;;;;;;7.70;4.20;;;;;;;9.67;82.20;96388.80;219779;1277;22736;-74
2022/01/04 20:13:34;;;;;;;7.60;4.10;;;;;;;9.72;81.91;96398.17;220340;1277;22616;-74
2022/01/04 20:19:54;;;;;;;7.50;4.20;;;;;;;9.77;81.70;96395.38;212537;1277;10361636;-74
2022/01/04 20:32:07;;;;;;;6.50;3.40;;;;;;;9.91;81.27;96396.70;220407;1277;24220;-75
2022/01/04 20:38:11;;;;;;;7.90;3.90;;;;;;;9.99;81.32;96427.85;220281;1278;22493;-75
2022/01/04 20:43:23;;;;;;;6.10;3.50;;;;;;;10.06;81.29;96458.45;220135;1278;25268;-73
2022/01/04 20:48:46;;;;;;;;;;;;;;;;;;;;;
2022/01/04 20:54:52;;;;;;;3.70;2.70;;;;;;;9.65;82.58;96551.27;220014;1278;22753;-73
2022/01/04 20:59:55;;;;;;;3.70;2.60;;;;;;;9.09;83.28;96571.98;219938;1277;22555;-74
2022/01/04 21:05:00;;;;;;;3.50;2.60;;;;;;;8.58;84.25;96593.23;220074;1277;24269;-75
2022/01/04 21:10:40;;;;;;;2.60;2.10;;;;;;;8.16;85.07;96608.25;220226;1278;22548;-75
2022/01/04 21:16:21;;;;;;;2.60;1.70;;;;;;;7.78;85.85;96622.17;220137;1278;22603;-76
2022/01/04 21:21:36;;;;;;;2.60;1.80;;;;;;;7.46;86.20;96627.13;219911;1280;22712;-75
2022/01/04 21:27:08;;;;;;;3.80;2.30;;;;;;;7.23;87.07;96628.85;220107;1278;22572;-74
2022/01/04 21:32:16;;;;;;;3.00;2.10;;;;;;;7.04;87.58;96640.59;220219;1278;23135;-75
2022/01/04 21:37:43;;;;;;;3.50;2.40;;;;;;;6.91;87.94;96655.92;219960;1278;23079;-74
2022/01/04 21:43:50;;;;;;;;;;;;;;;;;;;;;
2022/01/04 21:50:04;;;;;;;4.60;2.80;;;;;;;6.67;88.57;96684.34;220270;1278;22618;-75
2022/01/04 21:56:27;;;;;;;4.20;2.50;;;;;;;6.59;89.01;96701.15;220094;1278;22574;-75
2022/01/04 22:02:30;;;;;;;3.60;3.00;;;;;;;6.50;89.26;96712.01;220035;1277;25396;-73
2022/01/04 22:07:56;;;;;;;5.30;3.10;;;;;;;6.45;89.24;96698.48;220211;1278;25460;-74
2022/01/04 22:13:40;;;;;;;;;;;;;;;;;;;;;
2022/01/04 22:19:09;;;;;;;7.00;3.70;;;;;;;6.37;89.55;96706.33;220196;1277;22652;-73
2022/01/04 22:24:26;;;;;;;4.80;3.70;;;;;;;6.34;89.46;96732.42;219818;1279;23371;-74
2022/01/04 22:29:57;;;;;;;5.40;4.30;;;;;;;6.31;89.44;96758.20;220093;1277;24665;-74
2022/01/04 22:36:00;;;;;;;6.10;4.40;;;;;;;6.27;89.43;96766.38;220168;1277;26536;-73
2022/01/04 22:41:22;;;;;;;7.50;4.90;;;;;;;6.23;89.26;96760.92;220232;1277;22592;-73
2022/01/04 22:46:44;;;;;;;4.80;3.20;;;;;;;6.15;88.95;96772.51;220300;1277;24371;-74
2022/01/04 22:52:11;;;;;;;6.30;4.30;;;;;;;6.07;88.95;96769.16;219928;1277;22573;-75
2022/01/04 22:57:31;;;;;;;7.30;4.90;;;;;;;6.03;89.02;96782.94;220237;1278;22725;-74
2022/01/04 23:02:47;;;;;;;8.70;6.60;;;;;;;5.99;88.97;96793.61;220259;1277;22739;-73
2022/01/04 23:08:39;;;;;;;9.90;6.70;;;;;;;5.96;89.02;96805.71;220209;1278;24193;-74
2022/01/04 23:13:50;;;;;;;8.80;5.50;;;;;;;5.95;89.34;96817.02;220084;1277;25339;-74
2022/01/04 23:18:55;;;;;;;6.20;4.80;;;;;;;5.91;88.75;96826.33;220105;1277;25312;-74
2022/01/04 23:24:10;;;;;;;;;;;;;;;;;;;;;
2022/01/04 23:29:47;;;;;;;7.90;6.10;;;;;;;5.77;89.22;96860.57;220098;1279;22549;-74
2022/01/04 23:35:09;;;;;;;10.10;7.50;;;;;;;5.72;89.07;96867.39;220056;1277;23267;-74
2022/01/04 23:40:35;;;;;;;8.90;6.60;;;;;;;5.70;89.33;96875.77;220267;1277;22591;-74
2022/01/04 23:46:14;;;;;;;10.30;6.90;;;;;;;5.68;89.36;96884.92;220174;1277;22574;-73
2022/01/04 23:51:53;;;;;;;;;;;;;;;;;;;;;
